sensor_id;sensor_type;location;lat;lon;timestamp;P1;durP1;ratioP1;P2;durP2;ratioP2
40367;SDS011;26075;43.320;21.920;2022-10-16T00:03:21;13.15;;;7.30;;
40367;SDS011;26075;43.320;21.920;2022-10-16T00:08:22;14.27;;;7.93;;
40367;SDS011;26075;43.320;21.920;2022-10-16T00:13:23;9.82;;;6.82;;
40367;SDS011;26075;43.320;21.920;2022-10-16T00:18:24;9.80;;;6.68;;
40367;SDS011;26075;43.320;21.920;2022-10-16T00:23:25;11.75;;;6.75;;
40367;SDS011;26075;43.320;21.920;2022-10-16T00:28:26;12.98;;;6.93;;
40367;SDS011;26075;43.320;21.920;2022-10-16T00:33:28;9.65;;;6.35;;
40367;SDS011;26075;43.320;21.920;2022-10-16T00:38:29;12.40;;;6.00;;
40367;SDS011;26075;43.320;21.920;2022-10-16T00:43:38;12.23;;;6.35;;
40367;SDS011;26075;43.320;21.920;2022-10-16T00:48:40;16.33;;;7.72;;
40367;SDS011;26075;43.320;21.920;2022-10-16T00:53:41;13.05;;;7.15;;
40367;SDS011;26075;43.320;21.920;2022-10-16T00:58:42;10.50;;;7.05;;
40367;SDS011;26075;43.320;21.920;2022-10-16T01:03:43;12.95;;;7.18;;
40367;SDS011;26075;43.320;21.920;2022-10-16T01:08:49;11.38;;;5.93;;
40367;SDS011;26075;43.320;21.920;2022-10-16T01:13:53;10.05;;;6.30;;
40367;SDS011;26075;43.320;21.920;2022-10-16T01:19:04;15.35;;;6.95;;
40367;SDS011;26075;43.320;21.920;2022-10-16T01:29:25;12.73;;;7.90;;
40367;SDS011;26075;43.320;21.920;2022-10-16T01:35:29;10.10;;;6.75;;
40367;SDS011;26075;43.320;21.920;2022-10-16T01:39:58;16.77;;;7.95;;
40367;SDS011;26075;43.320;21.920;2022-10-16T01:45:00;12.20;;;7.38;;
40367;SDS011;26075;43.320;21.920;2022-10-16T01:50:03;7.95;;;4.82;;
40367;SDS011;26075;43.320;21.920;2022-10-16T01:55:05;8.25;;;5.18;;
40367;SDS011;26075;43.320;21.920;2022-10-16T02:00:08;10.23;;;5.50;;
40367;SDS011;26075;43.320;21.920;2022-10-16T02:05:14;15.52;;;5.57;;
40367;SDS011;26075;43.320;21.920;2022-10-16T02:10:16;10.25;;;6.25;;
40367;SDS011;26075;43.320;21.920;2022-10-16T02:15:18;12.15;;;7.15;;
40367;SDS011;26075;43.320;21.920;2022-10-16T02:20:20;13.00;;;7.00;;
40367;SDS011;26075;43.320;21.920;2022-10-16T02:25:31;15.70;;;7.22;;
40367;SDS011;26075;43.320;21.920;2022-10-16T02:35:34;11.20;;;7.28;;
40367;SDS011;26075;43.320;21.920;2022-10-16T02:40:35;12.32;;;7.45;;
40367;SDS011;26075;43.320;21.920;2022-10-16T02:45:36;11.30;;;6.85;;
40367;SDS011;26075;43.320;21.920;2022-10-16T02:50:37;16.52;;;7.78;;
40367;SDS011;26075;43.320;21.920;2022-10-16T02:55:38;17.77;;;9.25;;
40367;SDS011;26075;43.320;21.920;2022-10-16T03:00:39;13.93;;;9.05;;
40367;SDS011;26075;43.320;21.920;2022-10-16T03:05:40;12.45;;;8.13;;
40367;SDS011;26075;43.320;21.920;2022-10-16T03:10:41;16.77;;;7.68;;
40367;SDS011;26075;43.320;21.920;2022-10-16T03:15:43;13.32;;;7.65;;
40367;SDS011;26075;43.320;21.920;2022-10-16T03:20:44;14.35;;;7.57;;
40367;SDS011;26075;43.320;21.920;2022-10-16T03:25:45;10.93;;;7.57;;
40367;SDS011;26075;43.320;21.920;2022-10-16T03:30:46;12.73;;;7.38;;
40367;SDS011;26075;43.320;21.920;2022-10-16T03:35:51;13.45;;;8.52;;
40367;SDS011;26075;43.320;21.920;2022-10-16T03:40:53;11.95;;;8.18;;
40367;SDS011;26075;43.320;21.920;2022-10-16T03:45:54;14.80;;;8.60;;
40367;SDS011;26075;43.320;21.920;2022-10-16T03:50:55;18.27;;;9.05;;
40367;SDS011;26075;43.320;21.920;2022-10-16T03:55:56;14.20;;;9.48;;
40367;SDS011;26075;43.320;21.920;2022-10-16T04:00:58;18.02;;;9.10;;
40367;SDS011;26075;43.320;21.920;2022-10-16T04:05:59;16.52;;;9.55;;
40367;SDS011;26075;43.320;21.920;2022-10-16T04:11:00;22.67;;;11.40;;
40367;SDS011;26075;43.320;21.920;2022-10-16T04:16:01;18.80;;;10.38;;
40367;SDS011;26075;43.320;21.920;2022-10-16T04:21:05;19.05;;;10.65;;
40367;SDS011;26075;43.320;21.920;2022-10-16T04:26:07;17.85;;;10.10;;
40367;SDS011;26075;43.320;21.920;2022-10-16T04:31:08;19.33;;;10.57;;
40367;SDS011;26075;43.320;21.920;2022-10-16T04:36:09;21.77;;;11.52;;
40367;SDS011;26075;43.320;21.920;2022-10-16T04:41:10;24.20;;;10.30;;
40367;SDS011;26075;43.320;21.920;2022-10-16T04:46:11;20.80;;;9.73;;
40367;SDS011;26075;43.320;21.920;2022-10-16T04:51:12;16.23;;;10.50;;
40367;SDS011;26075;43.320;21.920;2022-10-16T04:56:13;16.48;;;10.35;;
40367;SDS011;26075;43.320;21.920;2022-10-16T05:01:15;18.02;;;9.35;;
40367;SDS011;26075;43.320;21.920;2022-10-16T05:06:16;16.20;;;8.77;;
40367;SDS011;26075;43.320;21.920;2022-10-16T05:11:17;14.27;;;8.20;;
40367;SDS011;26075;43.320;21.920;2022-10-16T05:16:18;10.73;;;7.10;;
40367;SDS011;26075;43.320;21.920;2022-10-16T05:21:19;12.52;;;7.82;;
40367;SDS011;26075;43.320;21.920;2022-10-16T05:26:21;14.20;;;8.35;;
40367;SDS011;26075;43.320;21.920;2022-10-16T05:31:22;15.52;;;9.27;;
40367;SDS011;26075;43.320;21.920;2022-10-16T05:36:23;19.73;;;10.63;;
40367;SDS011;26075;43.320;21.920;2022-10-16T05:41:24;18.63;;;10.20;;
40367;SDS011;26075;43.320;21.920;2022-10-16T05:46:26;16.42;;;10.63;;
40367;SDS011;26075;43.320;21.920;2022-10-16T05:51:27;16.65;;;11.23;;
40367;SDS011;26075;43.320;21.920;2022-10-16T05:56:28;30.70;;;13.10;;
40367;SDS011;26075;43.320;21.920;2022-10-16T06:01:29;18.08;;;10.68;;
40367;SDS011;26075;43.320;21.920;2022-10-16T06:06:30;21.20;;;10.95;;
40367;SDS011;26075;43.320;21.920;2022-10-16T06:11:32;22.58;;;11.45;;
40367;SDS011;26075;43.320;21.920;2022-10-16T06:16:34;17.08;;;10.40;;
40367;SDS011;26075;43.320;21.920;2022-10-16T06:21:35;17.38;;;11.30;;
40367;SDS011;26075;43.320;21.920;2022-10-16T06:26:36;18.02;;;11.15;;
40367;SDS011;26075;43.320;21.920;2022-10-16T06:31:38;21.30;;;10.57;;
40367;SDS011;26075;43.320;21.920;2022-10-16T06:36:39;10.93;;;7.45;;
40367;SDS011;26075;43.320;21.920;2022-10-16T06:41:41;11.35;;;7.20;;
40367;SDS011;26075;43.320;21.920;2022-10-16T06:46:42;12.35;;;7.97;;
40367;SDS011;26075;43.320;21.920;2022-10-16T06:51:43;14.40;;;7.70;;
40367;SDS011;26075;43.320;21.920;2022-10-16T06:56:48;10.85;;;7.80;;
40367;SDS011;26075;43.320;21.920;2022-10-16T07:01:51;11.95;;;7.93;;
40367;SDS011;26075;43.320;21.920;2022-10-16T07:06:52;13.18;;;7.97;;
40367;SDS011;26075;43.320;21.920;2022-10-16T07:11:53;17.85;;;8.95;;
40367;SDS011;26075;43.320;21.920;2022-10-16T07:16:54;16.15;;;8.82;;
40367;SDS011;26075;43.320;21.920;2022-10-16T07:21:55;20.13;;;9.55;;
40367;SDS011;26075;43.320;21.920;2022-10-16T07:26:57;14.25;;;9.73;;
40367;SDS011;26075;43.320;21.920;2022-10-16T07:31:58;17.60;;;9.70;;
40367;SDS011;26075;43.320;21.920;2022-10-16T07:36:59;14.70;;;9.65;;
40367;SDS011;26075;43.320;21.920;2022-10-16T07:42:00;18.70;;;10.57;;
40367;SDS011;26075;43.320;21.920;2022-10-16T07:47:01;14.88;;;10.57;;
40367;SDS011;26075;43.320;21.920;2022-10-16T07:52:02;19.80;;;10.85;;
40367;SDS011;26075;43.320;21.920;2022-10-16T07:57:03;16.20;;;10.95;;
40367;SDS011;26075;43.320;21.920;2022-10-16T08:02:04;21.48;;;10.68;;
40367;SDS011;26075;43.320;21.920;2022-10-16T08:07:06;17.88;;;10.05;;
40367;SDS011;26075;43.320;21.920;2022-10-16T08:12:08;23.20;;;9.90;;
40367;SDS011;26075;43.320;21.920;2022-10-16T08:17:13;16.85;;;11.00;;
40367;SDS011;26075;43.320;21.920;2022-10-16T08:22:14;16.15;;;10.80;;
40367;SDS011;26075;43.320;21.920;2022-10-16T08:27:15;18.48;;;9.80;;
40367;SDS011;26075;43.320;21.920;2022-10-16T08:32:16;16.05;;;10.52;;
40367;SDS011;26075;43.320;21.920;2022-10-16T08:37:17;17.08;;;10.23;;
40367;SDS011;26075;43.320;21.920;2022-10-16T08:52:50;17.60;;;10.48;;
40367;SDS011;26075;43.320;21.920;2022-10-16T08:57:51;16.08;;;10.18;;
40367;SDS011;26075;43.320;21.920;2022-10-16T09:02:55;29.42;;;9.63;;
40367;SDS011;26075;43.320;21.920;2022-10-16T09:08:02;18.02;;;11.00;;
40367;SDS011;26075;43.320;21.920;2022-10-16T09:18:30;18.25;;;9.98;;
40367;SDS011;26075;43.320;21.920;2022-10-16T09:23:53;14.95;;;9.57;;
40367;SDS011;26075;43.320;21.920;2022-10-16T09:28:54;19.88;;;10.43;;
40367;SDS011;26075;43.320;21.920;2022-10-16T09:33:59;15.82;;;10.25;;
40367;SDS011;26075;43.320;21.920;2022-10-16T09:39:05;15.75;;;9.98;;
40367;SDS011;26075;43.320;21.920;2022-10-16T09:44:23;16.45;;;9.65;;
40367;SDS011;26075;43.320;21.920;2022-10-16T09:49:26;15.80;;;9.50;;
40367;SDS011;26075;43.320;21.920;2022-10-16T09:54:27;20.02;;;9.75;;
40367;SDS011;26075;43.320;21.920;2022-10-16T09:59:28;20.45;;;9.88;;
40367;SDS011;26075;43.320;21.920;2022-10-16T10:04:41;14.52;;;10.05;;
40367;SDS011;26075;43.320;21.920;2022-10-16T10:09:42;17.98;;;10.32;;
40367;SDS011;26075;43.320;21.920;2022-10-16T10:14:49;13.60;;;8.77;;
40367;SDS011;26075;43.320;21.920;2022-10-16T10:30:08;14.98;;;9.80;;
40367;SDS011;26075;43.320;21.920;2022-10-16T10:35:24;12.45;;;8.18;;
40367;SDS011;26075;43.320;21.920;2022-10-16T10:45:41;16.10;;;9.60;;
40367;SDS011;26075;43.320;21.920;2022-10-16T10:55:47;12.07;;;8.20;;
40367;SDS011;26075;43.320;21.920;2022-10-16T11:01:08;16.87;;;8.10;;
40367;SDS011;26075;43.320;21.920;2022-10-16T11:06:11;15.68;;;8.98;;
40367;SDS011;26075;43.320;21.920;2022-10-16T11:11:31;12.77;;;8.18;;
40367;SDS011;26075;43.320;21.920;2022-10-16T11:16:57;10.52;;;7.18;;
40367;SDS011;26075;43.320;21.920;2022-10-16T11:22:11;14.35;;;8.20;;
40367;SDS011;26075;43.320;21.920;2022-10-16T11:27:19;15.88;;;7.63;;
40367;SDS011;26075;43.320;21.920;2022-10-16T11:32:40;12.60;;;7.22;;
40367;SDS011;26075;43.320;21.920;2022-10-16T11:37:44;9.32;;;6.68;;
40367;SDS011;26075;43.320;21.920;2022-10-16T11:42:54;11.48;;;6.80;;
40367;SDS011;26075;43.320;21.920;2022-10-16T11:53:14;8.93;;;6.43;;
40367;SDS011;26075;43.320;21.920;2022-10-16T11:58:24;12.15;;;6.70;;
40367;SDS011;26075;43.320;21.920;2022-10-16T12:09:20;15.25;;;7.95;;
40367;SDS011;26075;43.320;21.920;2022-10-16T12:14:34;14.73;;;7.00;;
40367;SDS011;26075;43.320;21.920;2022-10-16T12:19:37;11.57;;;7.40;;
40367;SDS011;26075;43.320;21.920;2022-10-16T12:24:39;9.30;;;5.90;;
40367;SDS011;26075;43.320;21.920;2022-10-16T12:29:42;13.48;;;6.55;;
40367;SDS011;26075;43.320;21.920;2022-10-16T12:34:45;13.68;;;6.60;;
40367;SDS011;26075;43.320;21.920;2022-10-16T12:39:46;10.73;;;6.65;;
40367;SDS011;26075;43.320;21.920;2022-10-16T12:44:48;9.98;;;6.00;;
40367;SDS011;26075;43.320;21.920;2022-10-16T12:49:53;9.23;;;6.68;;
40367;SDS011;26075;43.320;21.920;2022-10-16T12:54:58;13.20;;;6.13;;
40367;SDS011;26075;43.320;21.920;2022-10-16T13:20:52;10.73;;;5.28;;
40367;SDS011;26075;43.320;21.920;2022-10-16T13:31:18;6.38;;;4.20;;
40367;SDS011;26075;43.320;21.920;2022-10-16T13:36:24;11.13;;;7.05;;
40367;SDS011;26075;43.320;21.920;2022-10-16T13:41:26;10.35;;;6.00;;
40367;SDS011;26075;43.320;21.920;2022-10-16T13:46:27;8.27;;;4.43;;
40367;SDS011;26075;43.320;21.920;2022-10-16T13:51:34;7.70;;;4.57;;
40367;SDS011;26075;43.320;21.920;2022-10-16T13:56:35;9.35;;;6.35;;
40367;SDS011;26075;43.320;21.920;2022-10-16T14:01:42;8.98;;;5.05;;
40367;SDS011;26075;43.320;21.920;2022-10-16T14:06:44;10.40;;;6.70;;
40367;SDS011;26075;43.320;21.920;2022-10-16T14:11:48;11.90;;;7.20;;
40367;SDS011;26075;43.320;21.920;2022-10-16T14:16:51;8.65;;;4.78;;
40367;SDS011;26075;43.320;21.920;2022-10-16T14:21:52;9.90;;;5.47;;
40367;SDS011;26075;43.320;21.920;2022-10-16T14:26:53;8.05;;;4.40;;
40367;SDS011;26075;43.320;21.920;2022-10-16T14:36:57;10.02;;;6.68;;
40367;SDS011;26075;43.320;21.920;2022-10-16T14:41:59;7.25;;;4.65;;
40367;SDS011;26075;43.320;21.920;2022-10-16T14:47:07;8.00;;;5.82;;
40367;SDS011;26075;43.320;21.920;2022-10-16T14:52:09;12.38;;;7.05;;
40367;SDS011;26075;43.320;21.920;2022-10-16T14:57:18;9.48;;;6.07;;
40367;SDS011;26075;43.320;21.920;2022-10-16T15:02:28;16.17;;;7.40;;
40367;SDS011;26075;43.320;21.920;2022-10-16T15:07:30;9.40;;;6.03;;
40367;SDS011;26075;43.320;21.920;2022-10-16T15:12:31;9.02;;;6.25;;
40367;SDS011;26075;43.320;21.920;2022-10-16T15:17:32;11.98;;;7.50;;
40367;SDS011;26075;43.320;21.920;2022-10-16T15:22:33;13.18;;;6.93;;
40367;SDS011;26075;43.320;21.920;2022-10-16T15:27:34;11.32;;;7.00;;
40367;SDS011;26075;43.320;21.920;2022-10-16T15:32:39;10.25;;;6.13;;
40367;SDS011;26075;43.320;21.920;2022-10-16T15:37:40;10.48;;;7.10;;
40367;SDS011;26075;43.320;21.920;2022-10-16T15:42:41;14.13;;;7.47;;
40367;SDS011;26075;43.320;21.920;2022-10-16T15:47:43;12.18;;;7.68;;
40367;SDS011;26075;43.320;21.920;2022-10-16T15:52:44;11.98;;;6.82;;
40367;SDS011;26075;43.320;21.920;2022-10-16T15:57:45;9.15;;;6.00;;
40367;SDS011;26075;43.320;21.920;2022-10-16T16:02:52;12.05;;;7.22;;
40367;SDS011;26075;43.320;21.920;2022-10-16T16:07:54;9.77;;;6.40;;
40367;SDS011;26075;43.320;21.920;2022-10-16T16:12:55;13.13;;;7.53;;
40367;SDS011;26075;43.320;21.920;2022-10-16T16:17:55;11.30;;;7.22;;
40367;SDS011;26075;43.320;21.920;2022-10-16T16:22:56;10.90;;;8.05;;
40367;SDS011;26075;43.320;21.920;2022-10-16T16:27:57;10.82;;;7.75;;
40367;SDS011;26075;43.320;21.920;2022-10-16T16:32:58;12.43;;;8.75;;
40367;SDS011;26075;43.320;21.920;2022-10-16T16:37:59;11.85;;;7.88;;
40367;SDS011;26075;43.320;21.920;2022-10-16T16:43:00;12.88;;;7.93;;
40367;SDS011;26075;43.320;21.920;2022-10-16T16:48:01;11.80;;;7.13;;
40367;SDS011;26075;43.320;21.920;2022-10-16T16:53:02;12.32;;;7.82;;
40367;SDS011;26075;43.320;21.920;2022-10-16T16:58:03;11.95;;;7.35;;
40367;SDS011;26075;43.320;21.920;2022-10-16T17:03:04;11.10;;;6.63;;
40367;SDS011;26075;43.320;21.920;2022-10-16T17:08:06;12.73;;;8.00;;
40367;SDS011;26075;43.320;21.920;2022-10-16T17:13:08;9.35;;;6.75;;
40367;SDS011;26075;43.320;21.920;2022-10-16T17:18:09;11.23;;;7.00;;
40367;SDS011;26075;43.320;21.920;2022-10-16T17:23:10;10.43;;;6.47;;
40367;SDS011;26075;43.320;21.920;2022-10-16T17:28:12;11.85;;;7.75;;
40367;SDS011;26075;43.320;21.920;2022-10-16T17:33:13;12.10;;;7.03;;
40367;SDS011;26075;43.320;21.920;2022-10-16T17:38:14;12.65;;;7.75;;
40367;SDS011;26075;43.320;21.920;2022-10-16T17:43:15;9.65;;;6.68;;
40367;SDS011;26075;43.320;21.920;2022-10-16T17:48:17;10.10;;;6.95;;
40367;SDS011;26075;43.320;21.920;2022-10-16T17:53:18;9.52;;;6.45;;
40367;SDS011;26075;43.320;21.920;2022-10-16T17:58:18;10.75;;;7.47;;
40367;SDS011;26075;43.320;21.920;2022-10-16T18:03:19;13.52;;;7.32;;
40367;SDS011;26075;43.320;21.920;2022-10-16T18:08:21;13.18;;;7.60;;
40367;SDS011;26075;43.320;21.920;2022-10-16T18:13:22;10.77;;;7.45;;
40367;SDS011;26075;43.320;21.920;2022-10-16T18:18:23;14.25;;;8.35;;
40367;SDS011;26075;43.320;21.920;2022-10-16T18:23:24;14.80;;;8.18;;
40367;SDS011;26075;43.320;21.920;2022-10-16T18:28:25;11.57;;;7.82;;
40367;SDS011;26075;43.320;21.920;2022-10-16T18:33:26;14.07;;;7.88;;
40367;SDS011;26075;43.320;21.920;2022-10-16T18:38:27;13.15;;;8.18;;
40367;SDS011;26075;43.320;21.920;2022-10-16T18:43:29;15.13;;;8.80;;
40367;SDS011;26075;43.320;21.920;2022-10-16T18:48:30;13.45;;;9.10;;
40367;SDS011;26075;43.320;21.920;2022-10-16T18:53:32;12.95;;;8.85;;
40367;SDS011;26075;43.320;21.920;2022-10-16T18:58:33;17.30;;;10.10;;
40367;SDS011;26075;43.320;21.920;2022-10-16T19:03:35;14.70;;;9.55;;
40367;SDS011;26075;43.320;21.920;2022-10-16T19:08:37;19.05;;;10.32;;
40367;SDS011;26075;43.320;21.920;2022-10-16T19:13:38;15.68;;;11.05;;
40367;SDS011;26075;43.320;21.920;2022-10-16T19:18:39;22.52;;;11.00;;
40367;SDS011;26075;43.320;21.920;2022-10-16T19:23:41;20.23;;;10.57;;
40367;SDS011;26075;43.320;21.920;2022-10-16T19:28:43;19.60;;;10.93;;
40367;SDS011;26075;43.320;21.920;2022-10-16T19:33:44;16.13;;;10.35;;
40367;SDS011;26075;43.320;21.920;2022-10-16T19:38:45;14.15;;;9.68;;
40367;SDS011;26075;43.320;21.920;2022-10-16T19:43:46;17.45;;;9.95;;
40367;SDS011;26075;43.320;21.920;2022-10-16T19:48:47;15.18;;;9.35;;
40367;SDS011;26075;43.320;21.920;2022-10-16T19:53:52;14.25;;;9.32;;
40367;SDS011;26075;43.320;21.920;2022-10-16T19:58:55;13.93;;;9.73;;
40367;SDS011;26075;43.320;21.920;2022-10-16T20:03:57;14.60;;;8.82;;
40367;SDS011;26075;43.320;21.920;2022-10-16T20:08:58;15.02;;;9.90;;
40367;SDS011;26075;43.320;21.920;2022-10-16T20:14:00;17.55;;;10.68;;
40367;SDS011;26075;43.320;21.920;2022-10-16T20:19:01;17.48;;;10.90;;
40367;SDS011;26075;43.320;21.920;2022-10-16T20:24:03;17.45;;;10.85;;
40367;SDS011;26075;43.320;21.920;2022-10-16T20:29:05;20.42;;;11.10;;
40367;SDS011;26075;43.320;21.920;2022-10-16T20:34:07;19.88;;;11.05;;
40367;SDS011;26075;43.320;21.920;2022-10-16T20:39:10;17.30;;;11.77;;
40367;SDS011;26075;43.320;21.920;2022-10-16T20:44:12;20.80;;;11.02;;
40367;SDS011;26075;43.320;21.920;2022-10-16T20:49:13;23.40;;;11.88;;
40367;SDS011;26075;43.320;21.920;2022-10-16T20:54:14;21.52;;;10.98;;
40367;SDS011;26075;43.320;21.920;2022-10-16T20:59:15;27.38;;;12.93;;
40367;SDS011;26075;43.320;21.920;2022-10-16T21:04:16;22.92;;;11.60;;
40367;SDS011;26075;43.320;21.920;2022-10-16T21:09:17;21.30;;;11.27;;
40367;SDS011;26075;43.320;21.920;2022-10-16T21:14:19;23.13;;;12.38;;
40367;SDS011;26075;43.320;21.920;2022-10-16T21:19:21;19.48;;;12.23;;
40367;SDS011;26075;43.320;21.920;2022-10-16T21:24:22;22.75;;;13.32;;
40367;SDS011;26075;43.320;21.920;2022-10-16T21:29:23;25.00;;;17.85;;
40367;SDS011;26075;43.320;21.920;2022-10-16T21:34:24;28.27;;;18.23;;
40367;SDS011;26075;43.320;21.920;2022-10-16T21:39:25;25.58;;;16.25;;
40367;SDS011;26075;43.320;21.920;2022-10-16T21:44:26;21.95;;;14.30;;
40367;SDS011;26075;43.320;21.920;2022-10-16T21:49:27;23.65;;;13.43;;
40367;SDS011;26075;43.320;21.920;2022-10-16T21:54:28;17.25;;;12.07;;
40367;SDS011;26075;43.320;21.920;2022-10-16T21:59:29;19.73;;;12.77;;
40367;SDS011;26075;43.320;21.920;2022-10-16T22:04:30;19.60;;;11.25;;
40367;SDS011;26075;43.320;21.920;2022-10-16T22:09:31;16.80;;;11.40;;
40367;SDS011;26075;43.320;21.920;2022-10-16T22:14:32;19.27;;;11.27;;
40367;SDS011;26075;43.320;21.920;2022-10-16T22:19:33;18.75;;;12.10;;
40367;SDS011;26075;43.320;21.920;2022-10-16T22:24:33;21.23;;;12.15;;
40367;SDS011;26075;43.320;21.920;2022-10-16T22:29:34;19.88;;;10.73;;
40367;SDS011;26075;43.320;21.920;2022-10-16T22:34:35;19.33;;;11.15;;
40367;SDS011;26075;43.320;21.920;2022-10-16T22:39:36;16.85;;;10.35;;
40367;SDS011;26075;43.320;21.920;2022-10-16T22:44:37;17.80;;;10.60;;
40367;SDS011;26075;43.320;21.920;2022-10-16T22:49:38;16.80;;;10.18;;
40367;SDS011;26075;43.320;21.920;2022-10-16T22:54:39;14.10;;;10.25;;
40367;SDS011;26075;43.320;21.920;2022-10-16T22:59:40;17.17;;;10.65;;
40367;SDS011;26075;43.320;21.920;2022-10-16T23:04:41;20.38;;;10.35;;
40367;SDS011;26075;43.320;21.920;2022-10-16T23:09:42;18.30;;;10.70;;
40367;SDS011;26075;43.320;21.920;2022-10-16T23:14:43;16.15;;;10.32;;
40367;SDS011;26075;43.320;21.920;2022-10-16T23:19:44;14.23;;;10.77;;
40367;SDS011;26075;43.320;21.920;2022-10-16T23:24:45;19.42;;;11.82;;
40367;SDS011;26075;43.320;21.920;2022-10-16T23:29:46;20.52;;;11.48;;
40367;SDS011;26075;43.320;21.920;2022-10-16T23:34:47;20.52;;;11.77;;
40367;SDS011;26075;43.320;21.920;2022-10-16T23:39:48;19.58;;;10.95;;
40367;SDS011;26075;43.320;21.920;2022-10-16T23:44:49;16.77;;;11.40;;
40367;SDS011;26075;43.320;21.920;2022-10-16T23:49:50;16.95;;;11.02;;
40367;SDS011;26075;43.320;21.920;2022-10-16T23:54:51;15.43;;;10.07;;
40367;SDS011;26075;43.320;21.920;2022-10-16T23:59:52;16.48;;;10.27;;
